Time;durP1;ratioP1;P1;durP2;ratioP2;P2;SDS_P1;SDS_P2;PMS_P1;PMS_P2;Temp;Humidity;BMP_temperature;BMP_pressure;BME280_temperature;BME280_humidity;BME280_pressure;Samples;Min_cycle;Max_cycle;Signal;HPM_P1;HPM_P2
2023/10/08 00:03:57;;;;;;;12.35;6.00;;;;;;;14.13;nan;102018.81;10365108;28;20049;-85
2023/10/08 00:09:06;;;;;;;9.60;4.82;;;;;;;14.19;nan;102011.22;10366120;28;20089;-84
2023/10/08 00:14:10;;;;;;;9.40;5.65;;;;;;;14.34;nan;102011.13;10365053;28;20042;-84
2023/10/08 00:19:12;;;;;;;7.43;4.15;;;;;;;14.34;nan;101998.84;10362715;28;20030;-84
2023/10/08 00:24:13;;;;;;;9.13;5.32;;;;;;;14.44;nan;102007.19;10379515;28;20045;-84
2023/10/08 00:29:21;;;;;;;11.18;5.32;;;;;;;14.46;nan;102008.16;10364180;28;20065;-82
2023/10/08 00:34:21;;;;;;;8.30;4.65;;;;;;;14.39;nan;102004.34;10364850;28;20049;-83
2023/10/08 00:39:26;;;;;;;8.10;5.03;;;;;;;14.27;nan;101999.34;10378797;28;20030;-84
2023/10/08 00:44:30;;;;;;;8.70;5.50;;;;;;;14.12;nan;102009.09;10363208;28;20034;-83
2023/10/08 01:00:06;;;;;;;10.63;5.80;;;;;;;13.80;nan;102010.13;10322250;28;20038;-82
2023/10/08 01:05:09;;;;;;;15.07;5.55;;;;;;;13.70;nan;102014.84;10361469;28;20049;-84
2023/10/08 01:10:13;;;;;;;9.25;4.93;;;;;;;13.53;nan;102009.59;10360595;28;20129;-83
2023/10/08 01:15:18;;;;;;;10.75;5.20;;;;;;;13.30;nan;102024.06;10360596;28;20034;-84
2023/10/08 01:20:33;;;;;;;12.00;4.85;;;;;;;13.17;nan;102027.75;10341343;28;20061;-84
2023/10/08 01:25:34;;;;;;;8.60;4.93;;;;;;;13.05;nan;102034.13;10301397;28;20035;-84
2023/10/08 01:30:41;;;;;;;8.93;4.68;;;;;;;12.96;nan;102038.88;10319185;28;20035;-84
2023/10/08 01:35:42;;;;;;;10.40;5.05;;;;;;;12.85;nan;102035.63;10321304;28;20061;-83
2023/10/08 01:40:42;;;;;;;9.88;4.75;;;;;;;12.73;nan;102029.66;10319610;28;20037;-84
2023/10/08 01:45:43;;;;;;;15.15;5.40;;;;;;;12.59;nan;102016.63;10341132;28;20044;-83
2023/10/08 01:50:46;;;;;;;15.50;5.50;;;;;;;12.61;nan;102037.75;10359332;28;20545;-84
2023/10/08 01:55:51;;;;;;;8.50;4.47;;;;;;;12.42;nan;102023.56;10323644;28;20132;-84
2023/10/08 02:00:54;;;;;;;12.85;5.07;;;;;;;12.33;nan;102028.25;10357754;28;20038;-84
2023/10/08 02:05:58;;;;;;;14.25;4.35;;;;;;;12.32;nan;102031.69;10359492;28;20102;-84
2023/10/08 02:10:59;;;;;;;11.48;5.30;;;;;;;12.28;nan;102014.84;10361560;28;20061;-84
2023/10/08 02:16:00;;;;;;;11.85;4.50;;;;;;;12.33;nan;102026.53;10358328;28;20117;-84
2023/10/08 02:21:00;;;;;;;11.02;5.30;;;;;;;12.23;nan;102039.91;10360194;28;20132;-84
2023/10/08 02:26:01;;;;;;;16.23;7.65;;;;;;;12.28;nan;102027.09;10359610;28;20073;-84
2023/10/08 02:31:03;;;;;;;10.88;5.28;;;;;;;12.37;nan;102050.34;10357787;28;20482;-84
2023/10/08 02:36:04;;;;;;;12.35;5.05;;;;;;;12.44;nan;102044.63;10359362;28;20048;-83
2023/10/08 02:41:07;;;;;;;12.07;5.00;;;;;;;12.58;nan;102041.09;10374329;28;20057;-84
2023/10/08 02:46:14;;;;;;;8.60;4.40;;;;;;;12.64;nan;102035.31;10370744;28;20042;-84
2023/10/08 02:51:14;;;;;;;10.90;6.13;;;;;;;12.76;nan;102040.34;10359427;28;20030;-83
2023/10/08 02:56:15;;;;;;;10.07;4.82;;;;;;;12.88;nan;102038.41;10373142;28;20814;-83
2023/10/08 03:01:16;;;;;;;10.45;5.95;;;;;;;12.91;nan;102041.22;10360044;28;20069;-84
2023/10/08 03:06:18;;;;;;;16.08;4.55;;;;;;;12.91;nan;102040.34;10340375;28;20093;-84
2023/10/08 03:11:18;;;;;;;13.20;6.15;;;;;;;12.86;nan;102047.03;10317222;28;20049;-84
2023/10/08 03:16:27;;;;;;;9.38;5.22;;;;;;;12.77;nan;102055.28;10354084;28;20122;-84
2023/10/08 03:26:38;;;;;;;11.57;4.90;;;;;;;12.80;nan;102059.84;10357618;28;20128;-85
2023/10/08 03:36:49;;;;;;;8.65;4.70;;;;;;;12.68;nan;102058.31;10339651;28;20046;-87
2023/10/08 03:42:05;;;;;;;11.07;5.10;;;;;;;12.68;nan;102063.56;10355603;28;20053;-87
2023/10/08 03:47:10;;;;;;;11.85;5.22;;;;;;;12.66;nan;102073.06;10357413;28;20044;-88
2023/10/08 03:52:12;;;;;;;15.07;5.68;;;;;;;12.67;nan;102092.34;10310490;28;20039;-84
2023/10/08 03:57:18;;;;;;;8.80;4.45;;;;;;;12.65;nan;102091.34;10389091;28;20045;-84
2023/10/08 04:02:32;;;;;;;6.88;4.55;;;;;;;12.59;nan;102081.41;10357933;28;20474;-84
2023/10/08 04:12:34;;;;;;;13.20;5.93;;;;;;;12.64;nan;102085.22;10356310;28;20042;-83
2023/10/08 04:17:44;;;;;;;11.17;5.47;;;;;;;12.67;nan;102064.38;10353282;28;20061;-82
2023/10/08 04:22:44;;;;;;;11.73;5.22;;;;;;;12.66;nan;102064.28;10362553;28;20281;-83
2023/10/08 04:27:49;;;;;;;14.45;6.00;;;;;;;12.68;nan;102066.19;10362891;28;20129;-82
2023/10/08 04:32:52;;;;;;;10.93;5.55;;;;;;;12.62;nan;102063.19;10379989;28;20041;-82
2023/10/08 04:37:53;;;;;;;14.32;5.45;;;;;;;12.56;nan;102055.84;10346685;28;20038;-82
2023/10/08 04:42:54;;;;;;;9.88;5.05;;;;;;;12.54;nan;102051.34;10361657;28;20509;-83
2023/10/08 04:47:58;;;;;;;11.57;5.47;;;;;;;12.56;nan;102054.97;10363228;28;20077;-82
2023/10/08 04:52:59;;;;;;;14.35;6.50;;;;;;;12.46;nan;102078.06;10380395;28;20042;-82
2023/10/08 04:58:00;;;;;;;11.23;4.88;;;;;;;12.40;nan;102079.41;10360964;28;20034;-82
2023/10/08 05:03:10;;;;;;;13.95;6.18;;;;;;;12.27;nan;102083.91;10345467;28;20048;-83
2023/10/08 05:08:25;;;;;;;11.52;5.60;;;;;;;12.07;nan;102113.28;10362015;28;20034;-83
2023/10/08 05:13:34;;;;;;;16.08;5.10;;;;;;;11.87;nan;102126.97;10360093;28;20061;-83
2023/10/08 05:19:07;;;;;;;13.48;5.65;;;;;;;11.72;nan;102124.25;10365158;28;20052;-82
2023/10/08 05:24:13;;;;;;;11.35;5.28;;;;;;;11.59;nan;102130.47;10373346;28;20042;-84
2023/10/08 05:29:51;;;;;;;11.65;6.32;;;;;;;11.42;nan;102146.84;10359768;28;20037;-83
2023/10/08 05:35:30;;;;;;;10.80;5.32;;;;;;;11.29;nan;102147.72;10359651;28;20042;-81
2023/10/08 05:40:37;;;;;;;11.63;5.63;;;;;;;11.19;nan;102163.66;10358235;28;20050;-81
2023/10/08 05:45:34;;;;;;;10.60;4.80;;;;;;;11.15;nan;102165.19;10360077;28;20045;-80
2023/10/08 05:50:55;;;;;;;12.00;4.57;;;;;;;11.14;nan;102179.09;10361741;28;20109;-83
2023/10/08 05:56:16;;;;;;;10.75;7.13;;;;;;;11.13;nan;102187.75;10358139;28;20133;-83
2023/10/08 06:01:39;;;;;;;12.40;5.93;;;;;;;11.16;nan;102198.44;10356765;28;20045;-86
2023/10/08 06:06:37;;;;;;;17.55;7.30;;;;;;;11.18;nan;102198.53;10350601;28;20080;-86
2023/10/08 06:16:46;;;;;;;16.95;7.15;;;;;;;11.25;nan;102199.06;10356527;28;20050;-82
2023/10/08 06:21:47;;;;;;;13.77;6.47;;;;;;;11.37;nan;102180.59;10360686;28;20041;-82
2023/10/08 06:26:50;;;;;;;9.85;5.43;;;;;;;11.59;nan;102171.50;10358670;28;20551;-82
2023/10/08 06:31:55;;;;;;;13.55;4.97;;;;;;;11.68;nan;102135.38;10322842;28;20124;-82
2023/10/08 06:36:58;;;;;;;12.95;6.32;;;;;;;11.88;nan;102123.53;10321222;28;20057;-82
2023/10/08 06:41:59;;;;;;;16.08;5.68;;;;;;;11.88;nan;102125.22;10359173;28;20050;-82
2023/10/08 06:47:00;;;;;;;12.40;6.38;;;;;;;11.87;nan;102131.28;10358050;28;20049;-82
2023/10/08 06:52:01;;;;;;;14.43;5.97;;;;;;;12.00;nan;102125.13;10354643;28;20065;-82
2023/10/08 06:57:02;;;;;;;10.32;5.18;;;;;;;12.08;nan;102141.34;10358423;28;20046;-82
2023/10/08 07:02:02;;;;;;;14.93;5.97;;;;;;;12.15;nan;102139.19;10369406;28;20057;-83
2023/10/08 07:07:03;;;;;;;19.40;7.07;;;;;;;12.22;nan;102150.97;10365179;28;20046;-81
2023/10/08 07:12:13;;;;;;;14.10;5.15;;;;;;;12.28;nan;102161.84;10372011;28;20172;-81
2023/10/08 07:17:19;;;;;;;10.63;5.97;;;;;;;12.47;nan;102157.72;10350005;28;20045;-82
2023/10/08 07:22:23;;;;;;;15.88;6.68;;;;;;;12.80;nan;102178.06;10356144;28;20042;-81
2023/10/08 07:27:29;;;;;;;11.82;6.30;;;;;;;13.00;nan;102153.84;10363425;28;20045;-81
2023/10/08 07:32:30;;;;;;;10.15;4.60;;;;;;;13.34;nan;102150.53;10321071;28;20038;-81
2023/10/08 07:37:32;;;;;;;16.25;6.50;;;;;;;13.68;nan;102146.28;10350855;28;20524;-81
2023/10/08 07:42:33;;;;;;;;;;;;;;;14.09;nan;102147.63;10368946;28;21834;-81
2023/10/08 07:47:33;;;;;;;13.43;7.47;;;;;;;14.65;nan;102149.66;10342841;28;19921;-81
2023/10/08 07:52:34;;;;;;;13.07;6.47;;;;;;;14.93;nan;102167.78;10343969;28;20056;-82
2023/10/08 07:57:35;;;;;;;14.43;7.65;;;;;;;15.00;nan;102168.09;10315557;28;20133;-82
2023/10/08 08:02:35;;;;;;;11.27;5.78;;;;;;;14.94;nan;102172.22;10303331;28;20446;-82
2023/10/08 08:07:38;;;;;;;12.73;7.67;;;;;;;15.04;nan;102180.59;10380305;28;20045;-82
2023/10/08 08:12:38;;;;;;;;;;;;;;;15.47;nan;102184.47;10360094;28;20034;-82
2023/10/08 08:17:39;;;;;;;13.37;7.97;;;;;;;15.74;nan;102187.53;10363464;28;19921;-83
2023/10/08 08:22:40;;;;;;;14.30;6.88;;;;;;;16.13;nan;102189.38;10366576;28;20280;-85
2023/10/08 08:27:46;;;;;;;12.18;7.07;;;;;;;16.62;nan;102195.94;10319108;28;20038;-85
2023/10/08 08:32:48;;;;;;;15.75;8.35;;;;;;;16.77;nan;102206.28;10362643;28;20041;-82
2023/10/08 08:37:49;;;;;;;14.35;7.28;;;;;;;16.65;nan;102211.03;10326277;28;20046;-79
2023/10/08 08:42:52;;;;;;;13.07;7.88;;;;;;;16.73;nan;102223.75;10354367;28;20462;-79
2023/10/08 08:47:53;;;;;;;15.48;7.85;;;;;;;16.82;nan;102235.56;10349165;28;20117;-82
2023/10/08 08:52:53;;;;;;;15.67;8.80;;;;;;;16.69;nan;102250.88;10335069;28;20103;-84
2023/10/08 08:57:54;;;;;;;19.63;9.45;;;;;;;16.95;nan;102252.88;10342787;28;20092;-81
2023/10/08 09:02:55;;;;;;;16.38;7.63;;;;;;;17.13;nan;102239.56;10360467;28;20042;-81
2023/10/08 09:08:09;;;;;;;19.33;8.53;;;;;;;17.59;nan;102267.06;10361252;28;20413;-83
2023/10/08 09:13:13;;;;;;;25.98;9.13;;;;;;;17.75;nan;102258.88;10367494;28;20040;-80
2023/10/08 09:18:14;;;;;;;20.08;10.20;;;;;;;18.55;nan;102267.22;10365150;28;20083;-81
2023/10/08 09:23:17;;;;;;;22.85;12.23;;;;;;;19.76;nan;102260.75;10360185;28;20486;-83
2023/10/08 09:28:18;;;;;;;19.95;12.55;;;;;;;19.80;nan;102267.97;10336222;28;20129;-84
2023/10/08 09:33:18;;;;;;;22.95;12.13;;;;;;;19.61;nan;102264.72;10353155;28;20418;-84
2023/10/08 09:38:23;;;;;;;23.27;15.50;;;;;;;19.80;nan;102268.91;10358187;28;20459;-84
2023/10/08 09:43:24;;;;;;;23.10;12.93;;;;;;;19.94;nan;102274.66;10358088;28;20030;-84
2023/10/08 09:48:25;;;;;;;31.50;13.30;;;;;;;19.76;nan;102287.31;10324965;28;20034;-84
2023/10/08 09:53:32;;;;;;;32.38;14.98;;;;;;;19.54;nan;102261.84;10284033;28;20146;-84
2023/10/08 09:58:32;;;;;;;22.77;12.38;;;;;;;19.41;nan;102268.47;10341920;28;20053;-83
2023/10/08 10:03:36;;;;;;;28.20;15.63;;;;;;;19.54;nan;102269.81;10359656;28;20046;-83
2023/10/08 10:08:36;;;;;;;29.48;14.43;;;;;;;19.59;nan;102265.56;10349245;28;20046;-83
2023/10/08 10:13:42;;;;;;;36.33;14.93;;;;;;;19.17;nan;102275.69;10360826;28;20087;-83
2023/10/08 10:18:46;;;;;;;35.00;17.45;;;;;;;18.85;nan;102270.09;10340749;28;20038;-83
2023/10/08 10:23:50;;;;;;;28.17;16.80;;;;;;;18.82;nan;102266.44;10342448;28;20037;-84
2023/10/08 10:29:09;;;;;;;33.92;15.73;;;;;;;18.82;nan;102280.59;10333572;28;20427;-83
2023/10/08 10:34:09;;;;;;;33.15;15.05;;;;;;;18.82;nan;102270.00;10358830;28;20058;-82
2023/10/08 10:39:16;;;;;;;23.40;14.63;;;;;;;18.75;nan;102252.94;10368744;28;20490;-83
2023/10/08 10:44:16;;;;;;;39.17;15.55;;;;;;;19.45;nan;102265.06;10321165;28;20038;-83
2023/10/08 10:49:21;;;;;;;22.67;15.13;;;;;;;19.87;nan;102267.31;10333855;28;20046;-83
2023/10/08 10:54:23;;;;;;;33.20;17.67;;;;;;;20.23;nan;102266.69;10341791;28;20087;-82
2023/10/08 10:59:27;;;;;;;44.28;15.65;;;;;;;20.27;nan;102267.69;10345994;28;20037;-83
2023/10/08 11:04:30;;;;;;;22.73;13.50;;;;;;;21.91;nan;102273.78;10352988;28;20422;-80
2023/10/08 11:09:44;;;;;;;25.85;13.13;;;;;;;21.89;nan;102283.50;10344851;28;20376;-82
2023/10/08 11:14:46;;;;;;;31.50;15.77;;;;;;;20.49;nan;102281.63;10344229;28;20045;-81
2023/10/08 11:19:48;;;;;;;31.38;16.80;;;;;;;19.90;nan;102266.56;10345342;28;20046;-81
2023/10/08 11:24:48;;;;;;;23.75;14.90;;;;;;;19.73;nan;102272.22;10355599;28;20069;-81
2023/10/08 11:30:00;;;;;;;30.13;14.93;;;;;;;19.69;nan;102261.41;10353569;28;20045;-80
2023/10/08 11:35:00;;;;;;;27.27;15.90;;;;;;;19.20;nan;102254.56;10352856;28;20502;-80
2023/10/08 11:40:17;;;;;;;27.17;13.77;;;;;;;18.99;nan;102252.03;10351904;28;20092;-80
2023/10/08 11:45:17;;;;;;;37.22;15.95;;;;;;;18.53;nan;102255.66;10350034;28;20050;-80
2023/10/08 11:50:21;;;;;;;29.55;16.58;;;;;;;18.54;nan;102244.22;10372620;28;20037;-80
2023/10/08 11:55:21;;;;;;;28.60;16.45;;;;;;;18.70;nan;102243.03;10332938;28;20042;-80
2023/10/08 12:00:25;;;;;;;37.20;17.65;;;;;;;18.40;nan;102246.38;10355056;28;20042;-80
2023/10/08 12:05:25;;;;;;;29.92;15.60;;;;;;;18.13;nan;102242.72;10332574;28;20484;-83
2023/10/08 12:10:26;;;;;;;25.58;16.10;;;;;;;18.66;nan;102226.09;10348657;28;20045;-83
2023/10/08 12:15:34;;;;;;;32.72;16.38;;;;;;;18.85;nan;102226.75;10349379;28;20506;-83
2023/10/08 12:20:37;;;;;;;26.55;14.65;;;;;;;19.07;nan;102226.69;10352562;28;20375;-83
2023/10/08 12:25:37;;;;;;;28.92;15.88;;;;;;;19.26;nan;102215.81;10354148;28;20092;-86
2023/10/08 12:30:44;;;;;;;31.50;16.73;;;;;;;19.66;nan;102217.97;10346628;28;20096;-82
2023/10/08 12:35:44;;;;;;;29.10;16.77;;;;;;;19.40;nan;102206.53;10339031;28;20050;-82
2023/10/08 12:40:48;;;;;;;29.67;15.60;;;;;;;19.54;nan;102192.81;10333588;28;20061;-82
2023/10/08 12:45:52;;;;;;;38.97;15.15;;;;;;;19.54;nan;102184.84;10362055;28;20048;-83
2023/10/08 12:50:53;;;;;;;32.58;18.25;;;;;;;19.55;nan;102179.56;10358991;28;20041;-81
2023/10/08 12:55:54;;;;;;;29.83;16.50;;;;;;;19.69;nan;102176.44;10358658;28;20116;-83
2023/10/08 13:00:57;;;;;;;35.37;19.00;;;;;;;19.62;nan;102181.56;10340088;28;20148;-82
2023/10/08 13:06:04;;;;;;;38.58;17.27;;;;;;;19.64;nan;102177.19;10360462;28;20040;-84
2023/10/08 13:11:04;;;;;;;34.45;17.13;;;;;;;19.77;nan;102169.59;10361117;28;20144;-83
2023/10/08 13:16:07;;;;;;;30.05;16.38;;;;;;;20.41;nan;102174.13;10358286;28;20087;-84
2023/10/08 13:21:09;;;;;;;29.00;16.35;;;;;;;21.49;nan;102174.25;10359935;28;20048;-83
2023/10/08 13:26:16;;;;;;;33.60;14.52;;;;;;;22.38;nan;102182.38;10359015;28;20050;-85
2023/10/08 13:31:19;;;;;;;29.23;15.63;;;;;;;23.17;nan;102186.44;10341028;28;20118;-83
2023/10/08 13:36:20;;;;;;;31.20;16.73;;;;;;;22.82;nan;102181.41;10362741;28;20442;-84
2023/10/08 13:41:20;;;;;;;25.13;16.23;;;;;;;21.92;nan;102160.97;10391255;28;20042;-83
2023/10/08 13:46:25;;;;;;;27.43;14.33;;;;;;;21.60;nan;102139.84;10365261;28;20398;-85
2023/10/08 13:51:25;;;;;;;26.17;16.13;;;;;;;22.02;nan;102146.09;10354363;28;20441;-82
2023/10/08 13:56:27;;;;;;;28.80;14.33;;;;;;;22.64;nan;102152.66;10349507;28;20104;-82
2023/10/08 14:01:27;;;;;;;23.65;14.98;;;;;;;22.43;nan;102143.34;10351961;28;20046;-89
2023/10/08 14:06:29;;;;;;;32.93;15.20;;;;;;;21.32;nan;102128.56;10355429;28;20046;-83
2023/10/08 14:11:30;;;;;;;;;;;;;;;20.35;nan;102114.63;10335982;28;20046;-83
2023/10/08 14:16:32;;;;;;;37.08;15.75;;;;;;;19.71;nan;102100.38;10340272;28;19921;-82
2023/10/08 14:21:38;;;;;;;26.13;14.43;;;;;;;19.45;nan;102092.53;10343089;28;20057;-83
2023/10/08 14:26:38;;;;;;;21.42;11.50;;;;;;;19.19;nan;102082.00;10355103;28;20057;-83
2023/10/08 14:31:39;;;;;;;33.45;13.82;;;;;;;19.34;nan;102076.28;10352707;28;20041;-81
2023/10/08 14:47:18;;;;;;;25.48;14.30;;;;;;;19.46;nan;102075.75;10347007;28;20121;-81
2023/10/08 14:52:18;;;;;;;32.30;14.82;;;;;;;20.06;nan;102076.59;10328895;28;20081;-83
2023/10/08 14:57:19;;;;;;;28.58;12.98;;;;;;;19.86;nan;102073.38;10326244;28;20049;-82
2023/10/08 15:02:19;;;;;;;26.57;14.63;;;;;;;19.90;nan;102078.81;10346916;28;20037;-83
2023/10/08 15:07:20;;;;;;;27.80;15.63;;;;;;;20.25;nan;102081.56;10356961;28;20085;-83
2023/10/08 15:12:21;;;;;;;20.63;12.97;;;;;;;20.12;nan;102075.88;10353029;28;20042;-83
2023/10/08 15:17:22;;;;;;;29.77;15.45;;;;;;;19.81;nan;102070.56;10357525;28;20034;-83
2023/10/08 15:22:22;;;;;;;28.93;15.43;;;;;;;19.24;nan;102068.88;10355273;28;20050;-83
2023/10/08 15:27:23;;;;;;;31.65;15.23;;;;;;;18.85;nan;102065.88;10339584;28;20103;-83
2023/10/08 15:32:25;;;;;;;27.92;13.73;;;;;;;18.85;nan;102055.28;10350572;28;20034;-83
2023/10/08 15:37:26;;;;;;;24.98;14.02;;;;;;;18.62;nan;102058.06;10356066;28;20065;-83
2023/10/08 15:42:26;;;;;;;27.47;14.30;;;;;;;18.45;nan;102046.88;10352392;28;20112;-82
2023/10/08 15:47:27;;;;;;;31.27;15.23;;;;;;;18.22;nan;102043.47;10367898;28;20123;-82
2023/10/08 15:52:28;;;;;;;26.75;14.02;;;;;;;17.99;nan;102032.00;10330723;28;20453;-82
2023/10/08 15:57:28;;;;;;;38.85;13.55;;;;;;;17.89;nan;102031.66;10336413;28;20050;-83
2023/10/08 16:02:29;;;;;;;27.83;16.08;;;;;;;17.68;nan;102026.50;10355817;28;20058;-82
2023/10/08 16:07:32;;;;;;;29.88;13.38;;;;;;;17.44;nan;102035.34;10354520;28;20056;-82
2023/10/08 16:12:33;;;;;;;26.95;14.18;;;;;;;17.02;nan;102032.81;10352646;28;20045;-82
2023/10/08 16:17:33;;;;;;;25.10;12.30;;;;;;;16.57;nan;102044.19;10354019;28;20393;-81
2023/10/08 16:22:34;;;;;;;29.00;13.45;;;;;;;16.09;nan;102039.53;10360162;28;20126;-81
2023/10/08 16:27:34;;;;;;;27.45;13.27;;;;;;;15.76;nan;102051.25;10352463;28;20112;-81
2023/10/08 16:32:36;;;;;;;24.08;12.23;;;;;;;15.40;nan;102070.75;10364752;28;20050;-80
2023/10/08 16:37:37;;;;;;;36.57;14.53;;;;;;;15.15;nan;102086.22;10339205;28;20050;-80
2023/10/08 16:42:38;;;;;;;25.55;15.45;;;;;;;14.99;nan;102096.03;10363269;28;20062;-81
2023/10/08 16:47:38;;;;;;;28.95;13.18;;;;;;;14.80;nan;102086.28;10338608;28;20149;-81
2023/10/08 16:52:39;;;;;;;26.83;14.27;;;;;;;14.59;nan;102080.84;10358604;28;20113;-81
2023/10/08 16:57:39;;;;;;;28.02;17.40;;;;;;;14.39;nan;102078.09;10351820;28;20128;-81
2023/10/08 17:02:40;;;;;;;38.42;17.27;;;;;;;14.30;nan;102083.78;10345723;28;20494;-81
2023/10/08 17:07:41;;;;;;;29.30;16.33;;;;;;;14.20;nan;102085.03;10321879;28;20053;-81
2023/10/08 17:12:42;;;;;;;23.73;15.23;;;;;;;14.02;nan;102087.59;10332038;28;20132;-81
2023/10/08 17:17:42;;;;;;;24.80;14.73;;;;;;;13.76;nan;102083.56;10340233;28;20481;-81
2023/10/08 17:22:44;;;;;;;35.65;17.38;;;;;;;13.70;nan;102085.88;10342684;28;22267;-80
2023/10/08 17:27:45;;;;;;;32.35;18.75;;;;;;;13.61;nan;102084.56;10368682;28;20486;-80
2023/10/08 17:32:47;;;;;;;50.38;18.98;;;;;;;13.45;nan;102079.28;10355178;28;20048;-80
2023/10/08 17:37:48;;;;;;;45.67;21.58;;;;;;;13.47;nan;102078.53;10331893;28;20103;-82
2023/10/08 17:42:52;;;;;;;37.05;17.73;;;;;;;13.28;nan;102083.53;10355199;28;20087;-83
2023/10/08 17:47:53;;;;;;;38.75;16.30;;;;;;;13.18;nan;102072.50;10357980;28;20056;-87
2023/10/08 17:52:56;;;;;;;39.60;19.63;;;;;;;13.21;nan;102062.16;10352084;28;20053;-79
2023/10/08 17:58:01;;;;;;;33.15;17.65;;;;;;;13.18;nan;102056.75;10354524;28;20041;-79
2023/10/08 18:03:01;;;;;;;42.67;21.27;;;;;;;13.18;nan;102055.84;10350946;28;20486;-80
2023/10/08 18:08:03;;;;;;;36.00;16.80;;;;;;;13.21;nan;102046.41;10351586;28;20038;-80
2023/10/08 18:13:04;;;;;;;37.55;23.20;;;;;;;13.29;nan;102053.81;10352348;28;20546;-81
2023/10/08 18:18:09;;;;;;;51.40;24.33;;;;;;;13.23;nan;102035.97;10357664;28;20048;-81
2023/10/08 18:23:11;;;;;;;41.05;21.50;;;;;;;13.19;nan;102032.25;10350084;28;20038;-82
2023/10/08 18:28:13;;;;;;;36.08;18.70;;;;;;;12.95;nan;102023.91;10341743;28;20042;-81
2023/10/08 18:33:14;;;;;;;73.00;32.58;;;;;;;12.93;nan;102023.81;10369861;28;20042;-83
2023/10/08 18:38:19;;;;;;;63.05;34.97;;;;;;;12.92;nan;102008.00;10328855;28;20074;-83
2023/10/08 18:43:20;;;;;;;49.90;26.50;;;;;;;12.83;nan;102005.72;10340586;28;21248;-84
2023/10/08 18:48:21;;;;;;;60.22;29.95;;;;;;;12.73;nan;102003.41;10339620;28;20038;-83
2023/10/08 18:53:23;;;;;;;58.37;28.43;;;;;;;12.68;nan;101989.09;10350247;28;20037;-83
2023/10/08 18:58:23;;;;;;;52.15;28.65;;;;;;;12.59;nan;101981.63;10354071;28;20045;-82
2023/10/08 19:03:24;;;;;;;51.95;29.13;;;;;;;12.49;nan;101980.16;10354818;28;20465;-82
2023/10/08 19:08:26;;;;;;;77.43;34.80;;;;;;;12.41;nan;101981.44;10355300;28;20050;-83
2023/10/08 19:13:29;;;;;;;52.35;29.70;;;;;;;12.32;nan;101985.34;10360652;28;20034;-83
2023/10/08 19:18:31;;;;;;;64.18;35.45;;;;;;;12.11;nan;101963.09;10357643;28;20060;-82
2023/10/08 19:23:32;;;;;;;64.22;30.08;;;;;;;12.18;nan;101941.63;10355864;28;20050;-81
2023/10/08 19:28:33;;;;;;;67.63;32.57;;;;;;;12.25;nan;101940.28;10355055;28;20045;-82
2023/10/08 19:33:34;;;;;;;64.50;31.50;;;;;;;12.22;nan;101943.63;10338199;28;20033;-83
2023/10/08 19:38:35;;;;;;;62.85;29.52;;;;;;;12.14;nan;101934.41;10341564;28;20053;-80
2023/10/08 19:43:35;;;;;;;60.92;35.30;;;;;;;12.14;nan;101931.78;10371502;28;20145;-83
2023/10/08 19:48:36;;;;;;;68.00;34.30;;;;;;;11.96;nan;101935.09;10354543;28;20100;-80
2023/10/08 19:53:38;;;;;;;66.20;32.72;;;;;;;11.84;nan;101942.22;10361969;28;20050;-81
2023/10/08 19:58:39;;;;;;;;;;;;;;;11.77;nan;101938.34;10363650;28;20069;-82
2023/10/08 20:03:39;;;;;;;69.90;30.88;;;;;;;11.73;nan;101920.63;10378885;28;20020;-80
2023/10/08 20:08:40;;;;;;;54.95;27.48;;;;;;;11.67;nan;101918.53;10336774;28;20034;-82
2023/10/08 20:13:44;;;;;;;56.90;28.27;;;;;;;11.58;nan;101903.16;10362062;28;20446;-81
2023/10/08 20:18:45;;;;;;;72.60;34.22;;;;;;;11.49;nan;101896.44;10360689;28;20112;-80
2023/10/08 20:23:46;;;;;;;63.83;32.83;;;;;;;11.54;nan;101887.13;10375749;28;20042;-80
2023/10/08 20:28:47;;;;;;;81.57;37.28;;;;;;;11.53;nan;101878.38;10334430;28;20040;-81
2023/10/08 20:33:48;;;;;;;71.28;34.50;;;;;;;11.44;nan;101889.22;10363426;28;20076;-80
2023/10/08 20:38:49;;;;;;;78.07;35.58;;;;;;;11.34;nan;101889.47;10360463;28;20042;-80
2023/10/08 20:43:51;;;;;;;73.65;36.13;;;;;;;11.29;nan;101883.03;10378442;28;20107;-79
2023/10/08 20:48:53;;;;;;;66.75;31.20;;;;;;;11.27;nan;101877.72;10335904;28;20034;-80
2023/10/08 20:53:56;;;;;;;;;;;;;;;11.25;nan;101875.78;10373095;28;20061;-81
2023/10/08 20:58:58;;;;;;;75.35;34.78;;;;;;;11.14;nan;101883.91;10384772;28;19925;-81
2023/10/08 21:03:59;;;;;;;65.35;31.38;;;;;;;11.07;nan;101879.09;10361335;28;20042;-81
2023/10/08 21:08:59;;;;;;;70.43;33.30;;;;;;;11.07;nan;101871.22;10337104;28;20066;-80
2023/10/08 21:14:01;;;;;;;63.72;31.58;;;;;;;11.10;nan;101873.16;10311950;28;20058;-80
2023/10/08 21:19:02;;;;;;;65.72;33.10;;;;;;;11.11;nan;101868.00;10361310;28;20449;-80
2023/10/08 21:24:06;;;;;;;73.72;30.90;;;;;;;11.14;nan;101868.19;10345703;28;20132;-81
2023/10/08 21:29:06;;;;;;;62.90;32.47;;;;;;;11.14;nan;101867.28;10360642;28;20070;-80
2023/10/08 21:34:07;;;;;;;65.32;31.98;;;;;;;11.16;nan;101857.81;10357633;28;20040;-80
2023/10/08 21:39:09;;;;;;;69.13;31.42;;;;;;;11.12;nan;101867.19;10359617;28;20124;-79
2023/10/08 21:44:10;;;;;;;73.28;33.95;;;;;;;11.24;nan;101850.41;10360303;28;20041;-80
2023/10/08 21:49:11;;;;;;;62.35;34.22;;;;;;;11.25;nan;101849.59;10362018;28;20049;-79
2023/10/08 21:54:11;;;;;;;57.95;31.35;;;;;;;11.25;nan;101832.16;10362480;28;20095;-80
2023/10/08 21:59:12;;;;;;;64.22;32.42;;;;;;;11.32;nan;101820.31;10320344;28;20466;-80
2023/10/08 22:04:13;;;;;;;71.05;32.25;;;;;;;11.37;nan;101815.38;10322960;28;20065;-79
2023/10/08 22:09:13;;;;;;;77.13;35.28;;;;;;;11.44;nan;101815.81;10337086;28;20030;-80
2023/10/08 22:14:18;;;;;;;61.22;32.70;;;;;;;11.49;nan;101807.31;10361573;28;20111;-79
2023/10/08 22:19:21;;;;;;;66.85;32.35;;;;;;;11.40;nan;101805.97;10371882;28;20034;-80
2023/10/08 22:24:23;;;;;;;65.22;33.20;;;;;;;11.48;nan;101811.66;10362314;28;20120;-81
2023/10/08 22:29:24;;;;;;;62.30;32.60;;;;;;;11.64;nan;101810.84;10344548;28;20038;-80
2023/10/08 22:34:28;;;;;;;63.10;32.93;;;;;;;11.87;nan;101821.75;10358212;28;20069;-79
2023/10/08 22:39:29;;;;;;;57.63;31.58;;;;;;;11.93;nan;101813.34;10326150;28;20036;-80
2023/10/08 22:44:29;;;;;;;65.05;33.72;;;;;;;11.93;nan;101806.38;10356117;28;20030;-80
2023/10/08 22:49:32;;;;;;;52.60;29.50;;;;;;;12.09;nan;101796.78;10351053;28;20034;-80
2023/10/08 22:54:32;;;;;;;;;;;;;;;12.12;nan;101784.75;10357735;28;20148;-80
2023/10/08 22:59:35;;;;;;;57.15;29.10;;;;;;;12.32;nan;101767.47;10373640;28;19975;-80
2023/10/08 23:04:36;;;;;;;53.58;26.65;;;;;;;12.37;nan;101769.44;10353120;28;20038;-79
2023/10/08 23:09:37;;;;;;;51.30;27.10;;;;;;;12.44;nan;101771.59;10354503;28;20045;-79
2023/10/08 23:14:38;;;;;;;46.72;25.08;;;;;;;12.43;nan;101775.94;10364874;28;20052;-79
2023/10/08 23:19:39;;;;;;;43.10;24.80;;;;;;;12.35;nan;101769.38;10355074;28;20053;-80
2023/10/08 23:24:42;;;;;;;40.70;21.75;;;;;;;12.36;nan;101765.94;10355817;28;20125;-79
2023/10/08 23:29:43;;;;;;;41.63;22.55;;;;;;;12.34;nan;101757.06;10353723;28;20046;-79
2023/10/08 23:34:44;;;;;;;33.53;20.35;;;;;;;12.37;nan;101753.69;10357262;28;20038;-79
2023/10/08 23:39:44;;;;;;;38.95;21.58;;;;;;;12.37;nan;101761.56;10358798;28;20069;-79
2023/10/08 23:44:48;;;;;;;32.35;18.38;;;;;;;12.18;nan;101757.94;10355320;28;20124;-79
2023/10/08 23:49:53;;;;;;;41.05;19.70;;;;;;;11.97;nan;101760.25;10355648;28;20478;-79
2023/10/08 23:54:57;;;;;;;33.45;20.92;;;;;;;11.90;nan;101752.03;10354322;28;20034;-79
